X  SluitMETAR luchtvaart weer gegevens      EHGG Eelde Airport

Temperatuur

6°C Temperatuur

-3°C Dauwpunt

53% Vochtigheid



Wind

11 KM/U

 7 MPH

 3 M/S

 6 KTS



360°
Pal Noord
Huidig weer

Geheel bewolkt Geheel bewolkt
Luchtdruk 1029.92 (hPa) - 30.41 (in)
Zicht 6.2 (mi) - 10 (km)
Vliegveld
Vliegveld code EHGG

Locatie Eelde Airport 50 (km)

Metar:
EHGG 051355Z AUTO 36006KT 320V050 9999 OVC038 06/M03 Q1030 NOSIG

Tijd: 05-03-2021 14:55